Allons, Tennessee
Current Conditions -  °F | °C
As of 6:15 PM on Sunday 25 Jan 2015 (Local Time) from KSRB Reporting Station
Overcast Overcast  
Wind Chill: 44°   Ceiling: 4600
Heat Index: 46°   Visibility: 9mi
Dew Point: 41°   Wind: 5mph
Humidity: 81%   Direction: 190°S
Pressure: 29.66"   Gusts: NA
Location:  36.44°N, 85.34°W
Report Text: KSRB 260015Z AUTO 19004KT 9SM FEW027 SCT040 OVC046 08/05 A2966 RMK
Loading
Personal Weather Stations






























Interactive Weather Map New forecast layout! Learn more

10-Day Weather Forecast

Advertisements
Track Severe Weather on mobile